Time;durP1;ratioP1;P1;durP2;ratioP2;P2;SDS_P1;SDS_P2;PMS_P1;PMS_P2;Temp;Humidity;BMP_temperature;BMP_pressure;BME280_temperature;BME280_humidity;BME280_pressure;Samples;Min_cycle;Max_cycle;Signal;HPM_P1;HPM_P2
2021/09/15 00:00:17;;;;;;;;;;;;;;;;;;2088470;28;19936;-57
2021/09/15 00:01:17;;;;;;;;;;;;;;;;;;2090710;28;20366;-57
2021/09/15 00:02:18;;;;;;;;;;;;;;;;;;2090104;28;19927;-58
2021/09/15 00:03:19;;;;;;;;;;;;;;;;;;2086319;28;19940;-57
2021/09/15 00:04:20;;;;;;;;;;;;;;;;;;2082551;28;19928;-58
2021/09/15 00:05:21;;;;;;;;;;;;;;;;;;2084601;28;19924;-58
2021/09/15 00:06:22;;;;;;;;;;;;;;;;;;2089228;28;19924;-57
2021/09/15 00:07:22;;;;;;;;;;;;;;;;;;2090865;28;19921;-58
2021/09/15 00:08:23;;;;;;;;;;;;;;;;;;2089943;28;19931;-58
2021/09/15 00:09:24;;;;;;;;;;;;;;;;;;2084337;28;19921;-58
2021/09/15 00:10:25;;;;;;;;;;;;;;;;;;2082478;28;19921;-57
2021/09/15 00:11:26;;;;;;;;;;;;;;;;;;2085770;28;20313;-57
2021/09/15 00:12:27;;;;;;;;;;;;;;;;;;2084653;28;19920;-58
2021/09/15 00:13:28;;;;;;;;;;;;;;;;;;2082400;28;19921;-57
2021/09/15 00:14:28;;;;;;;;;;;;;;;;;;2086150;28;19924;-57
2021/09/15 00:15:29;;;;;;;;;;;;;;;;;;2084029;28;20378;-57
2021/09/15 00:16:30;;;;;;;;;;;;;;;;;;2082455;28;19921;-57
2021/09/15 00:17:31;;;;;;;;;;;;;;;;;;2086198;28;19921;-57
2021/09/15 00:18:32;;;;;;;;;;;;;;;;;;2090273;28;20377;-58
2021/09/15 00:19:32;;;;;;;;;;;;;;;;;;2090574;28;19924;-58
2021/09/15 00:20:33;;;;;;;;;;;;;;;;;;2089344;28;19920;-58
2021/09/15 00:21:34;;;;;;;;;;;;;;;;;;2082936;28;19921;-58
2021/09/15 00:22:35;;;;;;;;;;;;;;;;;;2082489;28;20168;-58
2021/09/15 00:23:36;;;;;;;;;;;;;;;;;;2088075;28;19924;-57
2021/09/15 00:24:37;;;;;;;;;;;;;;;;;;2082438;28;19929;-58
2021/09/15 00:25:37;;;;;;;;;;;;;;;;;;2082311;28;19932;-57
2021/09/15 00:26:38;;;;;;;;;;;;;;;;;;2088075;28;19921;-58
2021/09/15 00:27:39;;;;;;;;;;;;;;;;;;2082428;28;20282;-58
2021/09/15 00:28:40;;;;;;;;;;;;;;;;;;2082332;28;20337;-58
2021/09/15 00:29:41;;;;;;;;;;;;;;;;;;2087941;28;19921;-58
2021/09/15 00:30:42;;;;;;;;;;;;;;;;;;2082435;28;19921;-58
2021/09/15 00:31:42;;;;;;;;;;;;;;;;;;2081979;28;19921;-58
2021/09/15 00:32:43;;;;;;;;;;;;;;;;;;2088105;28;19991;-58
2021/09/15 00:33:44;;;;;;;;;;;;;;;;;;2082293;28;19935;-58
2021/09/15 00:34:45;;;;;;;;;;;;;;;;;;2082618;28;19921;-58
2021/09/15 00:35:46;;;;;;;;;;;;;;;;;;2087400;28;19921;-58
2021/09/15 00:36:47;;;;;;;;;;;;;;;;;;2082328;28;19921;-58
2021/09/15 00:37:47;;;;;;;;;;;;;;;;;;2083332;28;19928;-58
2021/09/15 00:38:48;;;;;;;;;;;;;;;;;;2086112;28;20379;-58
2021/09/15 00:39:49;;;;;;;;;;;;;;;;;;2082262;28;19925;-57
2021/09/15 00:40:50;;;;;;;;;;;;;;;;;;2083528;28;19929;-58
2021/09/15 00:41:50;;;;;;;;;;;;;;;;;;2087755;28;19920;-58
2021/09/15 00:42:51;;;;;;;;;;;;;;;;;;2090508;28;19925;-58
2021/09/15 00:43:52;;;;;;;;;;;;;;;;;;2089508;28;19947;-58
2021/09/15 00:44:54;;;;;;;;;;;;;;;;;;2088980;28;19924;-58
2021/09/15 00:45:56;;;;;;;;;;;;;;;;;;2090387;28;20332;-57
2021/09/15 00:46:57;;;;;;;;;;;;;;;;;;2089705;28;19969;-58
2021/09/15 00:47:58;;;;;;;;;;;;;;;;;;2085321;28;20019;-58
2021/09/15 00:48:59;;;;;;;;;;;;;;;;;;2082376;28;20008;-58
2021/09/15 00:49:59;;;;;;;;;;;;;;;;;;2085241;28;19929;-58
2021/09/15 00:51:00;;;;;;;;;;;;;;;;;;2083046;28;19925;-58
2021/09/15 00:52:01;;;;;;;;;;;;;;;;;;2082197;28;19932;-59
2021/09/15 00:53:02;;;;;;;;;;;;;;;;;;2085847;28;19970;-58
2021/09/15 00:54:04;;;;;;;;;;;;;;;;;;2089251;28;19970;-58
2021/09/15 00:55:05;;;;;;;;;;;;;;;;;;2090576;28;20047;-57
2021/09/15 00:56:05;;;;;;;;;;;;;;;;;;2089412;28;20329;-57
2021/09/15 00:57:06;;;;;;;;;;;;;;;;;;2083229;28;19921;-58
2021/09/15 00:58:07;;;;;;;;;;;;;;;;;;2082287;28;19974;-57
2021/09/15 00:59:08;;;;;;;;;;;;;;;;;;2084605;28;20290;-58
2021/09/15 01:00:09;;;;;;;;;;;;;;;;;;2090243;28;19920;-58
2021/09/15 01:01:09;;;;;;;;;;;;;;;;;;2090273;28;19921;-57
2021/09/15 01:02:10;;;;;;;;;;;;;;;;;;2089232;28;19920;-58
2021/09/15 01:03:11;;;;;;;;;;;;;;;;;;2082088;28;19933;-58
2021/09/15 01:04:12;;;;;;;;;;;;;;;;;;2082221;28;20329;-58
2021/09/15 01:05:13;;;;;;;;;;;;;;;;;;2086971;28;19935;-57
2021/09/15 01:06:14;;;;;;;;;;;;;;;;;;2090462;28;19920;-57
2021/09/15 01:07:14;;;;;;;;;;;;;;;;;;2090406;28;19966;-57
2021/09/15 01:08:15;;;;;;;;;;;;;;;;;;2088066;28;19936;-57
2021/09/15 01:09:16;;;;;;;;;;;;;;;;;;2082125;28;20429;-57
2021/09/15 01:10:17;;;;;;;;;;;;;;;;;;2081552;28;19971;-57
2021/09/15 01:11:17;;;;;;;;;;;;;;;;;;2087862;28;19951;-57
2021/09/15 01:12:18;;;;;;;;;;;;;;;;;;2082087;28;20367;-58
2021/09/15 01:13:19;;;;;;;;;;;;;;;;;;2082552;28;19925;-57
2021/09/15 01:14:20;;;;;;;;;;;;;;;;;;2088357;28;19928;-58
2021/09/15 01:15:21;;;;;;;;;;;;;;;;;;2090208;28;19966;-57
2021/09/15 01:16:22;;;;;;;;;;;;;;;;;;2089927;28;19963;-57
2021/09/15 01:17:22;;;;;;;;;;;;;;;;;;2085881;28;19929;-57
2021/09/15 01:18:23;;;;;;;;;;;;;;;;;;2081974;28;19948;-57
2021/09/15 01:19:24;;;;;;;;;;;;;;;;;;2083523;28;19928;-57
2021/09/15 01:20:25;;;;;;;;;;;;;;;;;;2084034;28;19931;-57
2021/09/15 01:21:25;;;;;;;;;;;;;;;;;;2081920;28;19928;-57
2021/09/15 01:22:28;;;;;;;;;;;;;;;;;;2085886;28;19920;-57
2021/09/15 01:23:30;;;;;;;;;;;;;;;;;;2089497;28;20286;-57
2021/09/15 01:24:31;;;;;;;;;;;;;;;;;;2090342;28;19952;-57
2021/09/15 01:25:31;;;;;;;;;;;;;;;;;;2088181;28;19921;-57
2021/09/15 01:26:32;;;;;;;;;;;;;;;;;;2089038;28;19928;-57
2021/09/15 01:27:33;;;;;;;;;;;;;;;;;;2090147;28;19920;-57
2021/09/15 01:28:34;;;;;;;;;;;;;;;;;;2089065;28;19929;-57
2021/09/15 01:29:35;;;;;;;;;;;;;;;;;;2082347;28;19928;-58
2021/09/15 01:30:36;;;;;;;;;;;;;;;;;;2081873;28;20337;-57
2021/09/15 01:31:36;;;;;;;;;;;;;;;;;;2086597;28;20381;-58
2021/09/15 01:32:37;;;;;;;;;;;;;;;;;;2090264;28;19921;-58
2021/09/15 01:33:38;;;;;;;;;;;;;;;;;;2090180;28;19921;-58
2021/09/15 01:34:39;;;;;;;;;;;;;;;;;;2087676;28;19929;-57
2021/09/15 01:35:40;;;;;;;;;;;;;;;;;;2090133;28;19920;-57
2021/09/15 01:36:40;;;;;;;;;;;;;;;;;;2090218;28;19924;-57
2021/09/15 01:37:41;;;;;;;;;;;;;;;;;;2087921;28;20302;-58
2021/09/15 01:38:42;;;;;;;;;;;;;;;;;;2090167;28;19925;-58
2021/09/15 01:39:43;;;;;;;;;;;;;;;;;;2089777;28;20014;-58
2021/09/15 01:40:43;;;;;;;;;;;;;;;;;;2087957;28;20377;-57
2021/09/15 01:41:44;;;;;;;;;;;;;;;;;;2090045;28;20290;-57
2021/09/15 01:42:45;;;;;;;;;;;;;;;;;;2089692;28;19969;-58
2021/09/15 01:43:46;;;;;;;;;;;;;;;;;;2088091;28;20237;-58
2021/09/15 01:44:47;;;;;;;;;;;;;;;;;;2090068;28;19920;-58
2021/09/15 01:45:48;;;;;;;;;;;;;;;;;;2089469;28;19924;-57
2021/09/15 01:46:48;;;;;;;;;;;;;;;;;;2088385;28;19927;-58
2021/09/15 01:47:49;;;;;;;;;;;;;;;;;;2090267;28;19925;-57
2021/09/15 01:48:50;;;;;;;;;;;;;;;;;;2089440;28;19925;-57
2021/09/15 01:49:51;;;;;;;;;;;;;;;;;;2088313;28;19951;-57
2021/09/15 01:50:52;;;;;;;;;;;;;;;;;;2088551;28;19925;-57
2021/09/15 01:51:52;;;;;;;;;;;;;;;;;;2089239;28;19929;-57
2021/09/15 01:52:53;;;;;;;;;;;;;;;;;;2085225;28;19921;-57
2021/09/15 01:53:54;;;;;;;;;;;;;;;;;;2081917;28;19944;-57
2021/09/15 01:54:55;;;;;;;;;;;;;;;;;;2084419;28;20289;-58
2021/09/15 01:55:55;;;;;;;;;;;;;;;;;;2084565;28;19967;-57
2021/09/15 01:56:56;;;;;;;;;;;;;;;;;;2081721;28;19928;-58
2021/09/15 01:57:57;;;;;;;;;;;;;;;;;;2084790;28;20378;-57
2021/09/15 01:58:58;;;;;;;;;;;;;;;;;;2084154;28;19960;-57
2021/09/15 01:59:59;;;;;;;;;;;;;;;;;;2081865;28;19929;-57
2021/09/15 02:01:00;;;;;;;;;;;;;;;;;;2085505;28;19920;-57
2021/09/15 02:02:01;;;;;;;;;;;;;;;;;;2083614;28;20547;-57
2021/09/15 02:03:02;;;;;;;;;;;;;;;;;;2081909;28;19925;-57
2021/09/15 02:04:03;;;;;;;;;;;;;;;;;;2085420;28;19990;-57
2021/09/15 02:05:04;;;;;;;;;;;;;;;;;;2089403;28;20263;-57
2021/09/15 02:06:04;;;;;;;;;;;;;;;;;;2089872;28;19920;-57
2021/09/15 02:07:05;;;;;;;;;;;;;;;;;;2088914;28;19920;-57
2021/09/15 02:08:06;;;;;;;;;;;;;;;;;;2082558;28;19975;-56
2021/09/15 02:09:07;;;;;;;;;;;;;;;;;;2081859;28;19925;-57
2021/09/15 02:10:08;;;;;;;;;;;;;;;;;;2087152;28;19921;-57
2021/09/15 02:11:09;;;;;;;;;;;;;;;;;;2081764;28;19928;-58
2021/09/15 02:12:10;;;;;;;;;;;;;;;;;;2081828;28;19952;-57
2021/09/15 02:13:10;;;;;;;;;;;;;;;;;;2086558;28;20278;-57
2021/09/15 02:14:11;;;;;;;;;;;;;;;;;;2089994;28;20362;-57
2021/09/15 02:15:12;;;;;;;;;;;;;;;;;;2089889;28;19931;-57
2021/09/15 02:16:13;;;;;;;;;;;;;;;;;;2087764;28;19921;-57
2021/09/15 02:17:13;;;;;;;;;;;;;;;;;;2089898;28;20298;-57
2021/09/15 02:18:14;;;;;;;;;;;;;;;;;;2089573;28;19921;-57
2021/09/15 02:19:15;;;;;;;;;;;;;;;;;;2087550;28;19920;-57
2021/09/15 02:20:16;;;;;;;;;;;;;;;;;;2081725;28;19943;-57
2021/09/15 02:21:17;;;;;;;;;;;;;;;;;;2082040;28;19920;-58
2021/09/15 02:22:18;;;;;;;;;;;;;;;;;;2086957;28;20251;-57
2021/09/15 02:23:18;;;;;;;;;;;;;;;;;;2081639;28;19928;-57
2021/09/15 02:24:21;;;;;;;;;;;;;;;;;;2082439;28;19982;-57
2021/09/15 02:25:22;;;;;;;;;;;;;;;;;;2087195;28;20015;-57
2021/09/15 02:26:23;;;;;;;;;;;;;;;;;;2089817;28;19922;-57
2021/09/15 02:27:23;;;;;;;;;;;;;;;;;;2089375;28;19925;-57
2021/09/15 02:28:24;;;;;;;;;;;;;;;;;;2088072;28;19935;-57
2021/09/15 02:29:25;;;;;;;;;;;;;;;;;;2089962;28;19927;-57
2021/09/15 02:30:26;;;;;;;;;;;;;;;;;;2088838;28;20447;-57
2021/09/15 02:31:27;;;;;;;;;;;;;;;;;;2088416;28;19924;-57
2021/09/15 02:32:28;;;;;;;;;;;;;;;;;;2089808;28;19921;-57
2021/09/15 02:33:29;;;;;;;;;;;;;;;;;;2088936;28;19927;-57
2021/09/15 02:34:30;;;;;;;;;;;;;;;;;;2083521;28;19921;-57
2021/09/15 02:35:31;;;;;;;;;;;;;;;;;;2081476;28;20375;-57
2021/09/15 02:36:32;;;;;;;;;;;;;;;;;;2084569;28;20465;-57
2021/09/15 02:37:32;;;;;;;;;;;;;;;;;;2083920;28;19924;-57
2021/09/15 02:38:33;;;;;;;;;;;;;;;;;;2081551;28;20298;-57
2021/09/15 02:39:34;;;;;;;;;;;;;;;;;;2085146;28;19921;-57
2021/09/15 02:40:35;;;;;;;;;;;;;;;;;;2088557;28;19921;-57
2021/09/15 02:41:36;;;;;;;;;;;;;;;;;;2089609;28;20386;-57
2021/09/15 02:42:36;;;;;;;;;;;;;;;;;;2088834;28;20396;-57
2021/09/15 02:43:37;;;;;;;;;;;;;;;;;;2082874;28;19921;-57
2021/09/15 02:44:38;;;;;;;;;;;;;;;;;;2081499;28;19921;-57
2021/09/15 02:45:39;;;;;;;;;;;;;;;;;;2085292;28;20081;-57
2021/09/15 02:46:40;;;;;;;;;;;;;;;;;;2089572;28;20370;-56
2021/09/15 02:47:40;;;;;;;;;;;;;;;;;;2089685;28;19982;-57
2021/09/15 02:48:41;;;;;;;;;;;;;;;;;;2088552;28;19921;-57
2021/09/15 02:49:42;;;;;;;;;;;;;;;;;;2081720;28;19925;-57
2021/09/15 02:50:43;;;;;;;;;;;;;;;;;;2080045;28;20434;-56
2021/09/15 02:51:44;;;;;;;;;;;;;;;;;;2086277;28;19924;-57
2021/09/15 02:52:44;;;;;;;;;;;;;;;;;;2089674;28;19944;-57
2021/09/15 02:53:45;;;;;;;;;;;;;;;;;;2089696;28;19921;-56
2021/09/15 02:54:46;;;;;;;;;;;;;;;;;;2087504;28;19921;-57
2021/09/15 02:55:47;;;;;;;;;;;;;;;;;;2089548;28;20290;-56
2021/09/15 02:56:48;;;;;;;;;;;;;;;;;;2089776;28;20362;-57
2021/09/15 02:57:48;;;;;;;;;;;;;;;;;;2086503;28;19943;-57
2021/09/15 02:58:49;;;;;;;;;;;;;;;;;;2089641;28;19929;-57
2021/09/15 02:59:50;;;;;;;;;;;;;;;;;;2089197;28;20096;-58
2021/09/15 03:00:51;;;;;;;;;;;;;;;;;;2087617;28;20019;-57
2021/09/15 03:01:52;;;;;;;;;;;;;;;;;;2089615;28;19924;-57
2021/09/15 03:02:53;;;;;;;;;;;;;;;;;;2089297;28;20281;-57
2021/09/15 03:03:53;;;;;;;;;;;;;;;;;;2086061;28;19928;-56
2021/09/15 03:04:54;;;;;;;;;;;;;;;;;;2082717;28;19928;-56
2021/09/15 03:05:55;;;;;;;;;;;;;;;;;;2085403;28;19921;-57
2021/09/15 03:06:56;;;;;;;;;;;;;;;;;;2088399;28;19948;-57
2021/09/15 03:07:57;;;;;;;;;;;;;;;;;;2084115;28;19928;-57
2021/09/15 03:08:58;;;;;;;;;;;;;;;;;;2085838;28;19921;-56
2021/09/15 03:09:58;;;;;;;;;;;;;;;;;;2087116;28;19921;-56
2021/09/15 03:10:59;;;;;;;;;;;;;;;;;;2084046;28;20011;-56
2021/09/15 03:12:00;;;;;;;;;;;;;;;;;;2086338;28;19925;-57
2021/09/15 03:13:01;;;;;;;;;;;;;;;;;;2086980;28;19921;-57
2021/09/15 03:14:01;;;;;;;;;;;;;;;;;;2084013;28;19999;-57
2021/09/15 03:15:02;;;;;;;;;;;;;;;;;;2086780;28;20003;-57
2021/09/15 03:16:03;;;;;;;;;;;;;;;;;;2090614;28;19920;-56
2021/09/15 03:17:04;;;;;;;;;;;;;;;;;;2092314;28;19924;-57
2021/09/15 03:18:05;;;;;;;;;;;;;;;;;;2091360;28;19939;-57
2021/09/15 03:19:06;;;;;;;;;;;;;;;;;;2086460;28;19921;-56
2021/09/15 03:20:07;;;;;;;;;;;;;;;;;;2084123;28;20285;-57
2021/09/15 03:21:08;;;;;;;;;;;;;;;;;;2087778;28;19920;-57
2021/09/15 03:22:08;;;;;;;;;;;;;;;;;;2085697;28;19921;-56
2021/09/15 03:23:09;;;;;;;;;;;;;;;;;;2084010;28;19925;-57
2021/09/15 03:24:10;;;;;;;;;;;;;;;;;;2088476;28;19927;-56
2021/09/15 03:25:11;;;;;;;;;;;;;;;;;;2085066;28;19928;-57
2021/09/15 03:26:11;;;;;;;;;;;;;;;;;;2084123;28;20325;-55
2021/09/15 03:27:12;;;;;;;;;;;;;;;;;;2088034;28;19920;-56
2021/09/15 03:28:13;;;;;;;;;;;;;;;;;;2092235;28;19920;-57
2021/09/15 03:29:14;;;;;;;;;;;;;;;;;;2092249;28;20219;-58
2021/09/15 03:30:15;;;;;;;;;;;;;;;;;;2090030;28;19921;-57
2021/09/15 03:31:15;;;;;;;;;;;;;;;;;;2092130;28;20114;-57
2021/09/15 03:32:16;;;;;;;;;;;;;;;;;;2092252;28;20366;-57
2021/09/15 03:33:17;;;;;;;;;;;;;;;;;;2089639;28;19924;-56
2021/09/15 03:34:18;;;;;;;;;;;;;;;;;;2092246;28;19921;-56
2021/09/15 03:35:19;;;;;;;;;;;;;;;;;;2092089;28;19970;-58
2021/09/15 03:36:20;;;;;;;;;;;;;;;;;;2089281;28;19932;-58
2021/09/15 03:37:20;;;;;;;;;;;;;;;;;;2084166;28;20424;-58
2021/09/15 03:38:21;;;;;;;;;;;;;;;;;;2083674;28;20381;-56
2021/09/15 03:39:22;;;;;;;;;;;;;;;;;;2090337;28;19928;-58
2021/09/15 03:40:23;;;;;;;;;;;;;;;;;;2092142;28;19948;-57
2021/09/15 03:41:24;;;;;;;;;;;;;;;;;;2091701;28;20381;-56
2021/09/15 03:42:24;;;;;;;;;;;;;;;;;;2088959;28;19967;-57
2021/09/15 03:43:25;;;;;;;;;;;;;;;;;;2084035;28;19928;-56
2021/09/15 03:44:27;;;;;;;;;;;;;;;;;;2085003;28;20401;-58
2021/09/15 03:45:28;;;;;;;;;;;;;;;;;;2089454;28;20015;-57
2021/09/15 03:46:29;;;;;;;;;;;;;;;;;;2092191;28;20274;-58
2021/09/15 03:47:30;;;;;;;;;;;;;;;;;;2091541;28;19921;-58
2021/09/15 03:48:31;;;;;;;;;;;;;;;;;;2090510;28;19928;-58
2021/09/15 03:49:31;;;;;;;;;;;;;;;;;;2092238;28;19921;-58
2021/09/15 03:50:32;;;;;;;;;;;;;;;;;;2088828;28;19936;-58
2021/09/15 03:51:33;;;;;;;;;;;;;;;;;;2087468;28;19999;-58
2021/09/15 03:52:34;;;;;;;;;;;;;;;;;;2084055;28;20358;-58
2021/09/15 03:53:35;;;;;;;;;;;;;;;;;;2086650;28;19999;-58
2021/09/15 03:54:36;;;;;;;;;;;;;;;;;;2090547;28;20294;-58
2021/09/15 03:55:37;;;;;;;;;;;;;;;;;;2091990;28;19921;-58
2021/09/15 03:56:38;;;;;;;;;;;;;;;;;;2091175;28;19928;-58
2021/09/15 03:57:38;;;;;;;;;;;;;;;;;;2090735;28;19921;-58
2021/09/15 03:58:39;;;;;;;;;;;;;;;;;;2092117;28;19943;-58
2021/09/15 03:59:40;;;;;;;;;;;;;;;;;;2091096;28;19921;-58
2021/09/15 04:00:41;;;;;;;;;;;;;;;;;;2090642;28;19921;-58
2021/09/15 04:01:42;;;;;;;;;;;;;;;;;;2092145;28;20203;-58
2021/09/15 04:02:43;;;;;;;;;;;;;;;;;;2090439;28;19929;-58
2021/09/15 04:03:44;;;;;;;;;;;;;;;;;;2091585;28;19977;-58
2021/09/15 04:04:44;;;;;;;;;;;;;;;;;;2092004;28;19927;-58
2021/09/15 04:05:45;;;;;;;;;;;;;;;;;;2089739;28;19927;-58
2021/09/15 04:06:46;;;;;;;;;;;;;;;;;;2091992;28;20377;-58
2021/09/15 04:07:47;;;;;;;;;;;;;;;;;;2092059;28;19921;-59
2021/09/15 04:08:47;;;;;;;;;;;;;;;;;;2089187;28;19935;-58
2021/09/15 04:09:48;;;;;;;;;;;;;;;;;;2083820;28;19921;-58
2021/09/15 04:10:49;;;;;;;;;;;;;;;;;;2084416;28;19927;-58
2021/09/15 04:11:50;;;;;;;;;;;;;;;;;;2090097;28;20282;-58
2021/09/15 04:12:51;;;;;;;;;;;;;;;;;;2091978;28;19921;-58
2021/09/15 04:13:52;;;;;;;;;;;;;;;;;;2091370;28;19924;-58
2021/09/15 04:14:52;;;;;;;;;;;;;;;;;;2088458;28;20103;-58
2021/09/15 04:15:53;;;;;;;;;;;;;;;;;;2083540;28;20283;-57
2021/09/15 04:16:54;;;;;;;;;;;;;;;;;;2082840;28;19921;-58
2021/09/15 04:17:55;;;;;;;;;;;;;;;;;;2088492;28;19921;-58
2021/09/15 04:18:56;;;;;;;;;;;;;;;;;;2090692;28;19921;-59
2021/09/15 04:19:57;;;;;;;;;;;;;;;;;;2089910;28;19947;-58
2021/09/15 04:20:57;;;;;;;;;;;;;;;;;;2085762;28;20150;-58
2021/09/15 04:21:58;;;;;;;;;;;;;;;;;;2082451;28;19955;-58
2021/09/15 04:22:59;;;;;;;;;;;;;;;;;;2084848;28;20043;-58
2021/09/15 04:24:14;;;;;;;;;;;;;;;;;;2085484;28;20023;-58
2021/09/15 04:32:05;;;;;;;;;;;;;;;;;;2061316;28;20009;-58
2021/09/15 04:33:06;;;;;;;;;;;;;;;;;;2065458;28;19922;-59
2021/09/15 04:34:07;;;;;;;;;;;;;;;;;;2065059;28;19922;-58
2021/09/15 04:35:08;;;;;;;;;;;;;;;;;;2065009;28;19925;-58
2021/09/15 04:36:08;;;;;;;;;;;;;;;;;;2071934;28;20007;-58
2021/09/15 04:37:09;;;;;;;;;;;;;;;;;;2073160;28;20310;-58
2021/09/15 04:38:10;;;;;;;;;;;;;;;;;;2084958;28;19924;-58
2021/09/15 04:39:11;;;;;;;;;;;;;;;;;;2090304;28;19920;-59
2021/09/15 04:40:11;;;;;;;;;;;;;;;;;;2090528;28;19921;-59
2021/09/15 04:41:12;;;;;;;;;;;;;;;;;;2087964;28;19929;-58
2021/09/15 04:42:13;;;;;;;;;;;;;;;;;;2082360;28;19921;-58
2021/09/15 04:43:14;;;;;;;;;;;;;;;;;;2082200;28;20260;-58
2021/09/15 04:44:15;;;;;;;;;;;;;;;;;;2087397;28;19929;-59
2021/09/15 04:45:16;;;;;;;;;;;;;;;;;;2090394;28;19920;-58
2021/09/15 04:46:16;;;;;;;;;;;;;;;;;;2090435;28;19921;-59
2021/09/15 04:47:17;;;;;;;;;;;;;;;;;;2087947;28;20385;-59
2021/09/15 04:48:18;;;;;;;;;;;;;;;;;;2082255;28;19921;-58
2021/09/15 04:49:19;;;;;;;;;;;;;;;;;;2082089;28;19921;-59
2021/09/15 04:50:19;;;;;;;;;;;;;;;;;;2088394;28;19931;-58
2021/09/15 04:51:20;;;;;;;;;;;;;;;;;;2081205;28;19928;-58
2021/09/15 04:52:21;;;;;;;;;;;;;;;;;;2082753;28;20346;-59
2021/09/15 04:53:22;;;;;;;;;;;;;;;;;;2087210;28;20279;-58
2021/09/15 04:54:23;;;;;;;;;;;;;;;;;;2082284;28;19925;-58
2021/09/15 04:55:24;;;;;;;;;;;;;;;;;;2083188;28;19925;-59
2021/09/15 04:56:24;;;;;;;;;;;;;;;;;;2088739;28;19927;-58
2021/09/15 04:57:25;;;;;;;;;;;;;;;;;;2090450;28;20297;-59
2021/09/15 04:58:26;;;;;;;;;;;;;;;;;;2089980;28;19950;-59
2021/09/15 04:59:27;;;;;;;;;;;;;;;;;;2088518;28;20014;-59
2021/09/15 05:00:28;;;;;;;;;;;;;;;;;;2090318;28;20643;-59
2021/09/15 05:01:29;;;;;;;;;;;;;;;;;;2089669;28;20417;-59
2021/09/15 05:02:29;;;;;;;;;;;;;;;;;;2085710;28;19921;-59
2021/09/15 05:03:31;;;;;;;;;;;;;;;;;;2082266;28;19928;-59
2021/09/15 05:04:35;;;;;;;;;;;;;;;;;;2085064;28;20362;-59
2021/09/15 05:05:36;;;;;;;;;;;;;;;;;;2083752;28;19921;-58
2021/09/15 05:06:36;;;;;;;;;;;;;;;;;;2082101;28;20299;-58
2021/09/15 05:07:37;;;;;;;;;;;;;;;;;;2085820;28;19975;-58
2021/09/15 05:08:38;;;;;;;;;;;;;;;;;;2088876;28;20317;-58
2021/09/15 05:09:39;;;;;;;;;;;;;;;;;;2090352;28;19925;-58
2021/09/15 05:10:40;;;;;;;;;;;;;;;;;;2089107;28;19921;-58
2021/09/15 05:11:41;;;;;;;;;;;;;;;;;;2083594;28;19921;-59
2021/09/15 05:12:41;;;;;;;;;;;;;;;;;;2082136;28;19943;-59
2021/09/15 05:13:42;;;;;;;;;;;;;;;;;;2085792;28;20323;-59
2021/09/15 05:14:43;;;;;;;;;;;;;;;;;;2089125;28;19924;-59
2021/09/15 05:15:44;;;;;;;;;;;;;;;;;;2090349;28;19921;-59
2021/09/15 05:16:44;;;;;;;;;;;;;;;;;;2088088;28;20382;-59
2021/09/15 05:17:45;;;;;;;;;;;;;;;;;;2090133;28;19920;-59
2021/09/15 05:18:46;;;;;;;;;;;;;;;;;;2090281;28;19971;-59
2021/09/15 05:19:47;;;;;;;;;;;;;;;;;;2089044;28;19921;-59
2021/09/15 05:20:48;;;;;;;;;;;;;;;;;;2082074;28;19921;-58
2021/09/15 05:21:48;;;;;;;;;;;;;;;;;;2082026;28;20405;-59
2021/09/15 05:22:49;;;;;;;;;;;;;;;;;;2087323;28;19955;-59
2021/09/15 05:23:50;;;;;;;;;;;;;;;;;;2090049;28;20274;-61
2021/09/15 05:24:51;;;;;;;;;;;;;;;;;;2090380;28;20412;-59
2021/09/15 05:25:52;;;;;;;;;;;;;;;;;;2087644;28;19925;-59
2021/09/15 05:26:52;;;;;;;;;;;;;;;;;;2090184;28;19925;-58
2021/09/15 05:27:54;;;;;;;;;;;;;;;;;;2089552;28;19966;-59
2021/09/15 05:28:54;;;;;;;;;;;;;;;;;;2088209;28;20016;-60
2021/09/15 05:29:55;;;;;;;;;;;;;;;;;;2090294;28;19974;-59
2021/09/15 05:30:56;;;;;;;;;;;;;;;;;;2089900;28;20286;-58
2021/09/15 05:31:57;;;;;;;;;;;;;;;;;;2086696;28;20263;-58
2021/09/15 05:32:58;;;;;;;;;;;;;;;;;;2082050;28;19943;-58
2021/09/15 05:33:59;;;;;;;;;;;;;;;;;;2083159;28;19927;-59
2021/09/15 05:34:59;;;;;;;;;;;;;;;;;;2088420;28;19933;-59
2021/09/15 05:36:00;;;;;;;;;;;;;;;;;;2090162;28;20302;-58
2021/09/15 05:37:01;;;;;;;;;;;;;;;;;;2089762;28;19959;-59
2021/09/15 05:38:02;;;;;;;;;;;;;;;;;;2088266;28;20333;-59
2021/09/15 05:39:03;;;;;;;;;;;;;;;;;;2090232;28;20370;-58
2021/09/15 05:40:04;;;;;;;;;;;;;;;;;;2089256;28;19920;-58
2021/09/15 05:41:04;;;;;;;;;;;;;;;;;;2085364;28;19921;-58
2021/09/15 05:42:05;;;;;;;;;;;;;;;;;;2081806;28;20286;-58
2021/09/15 05:43:06;;;;;;;;;;;;;;;;;;2084579;28;19920;-59
2021/09/15 05:44:07;;;;;;;;;;;;;;;;;;2084824;28;19952;-59
2021/09/15 05:45:08;;;;;;;;;;;;;;;;;;2081900;28;19929;-58
2021/09/15 05:46:09;;;;;;;;;;;;;;;;;;2085152;28;19955;-58
2021/09/15 05:47:09;;;;;;;;;;;;;;;;;;2088619;28;20365;-59
2021/09/15 05:48:10;;;;;;;;;;;;;;;;;;2090251;28;19927;-59
2021/09/15 05:49:11;;;;;;;;;;;;;;;;;;2088977;28;20335;-59
2021/09/15 05:50:12;;;;;;;;;;;;;;;;;;2088830;28;20337;-59
2021/09/15 05:51:13;;;;;;;;;;;;;;;;;;2081646;28;19929;-59
2021/09/15 05:52:13;;;;;;;;;;;;;;;;;;2085651;28;19921;-59
2021/09/15 05:53:14;;;;;;;;;;;;;;;;;;2089498;28;20286;-58
2021/09/15 05:54:15;;;;;;;;;;;;;;;;;;2090148;28;19920;-59
2021/09/15 05:55:16;;;;;;;;;;;;;;;;;;2087653;28;20304;-58
2021/09/15 05:56:17;;;;;;;;;;;;;;;;;;2090043;28;19921;-59
2021/09/15 05:57:18;;;;;;;;;;;;;;;;;;2090170;28;20012;-59
2021/09/15 05:58:20;;;;;;;;;;;;;;;;;;2087922;28;19921;-59
2021/09/15 05:59:21;;;;;;;;;;;;;;;;;;2089434;28;20419;-59
2021/09/15 06:00:22;;;;;;;;;;;;;;;;;;2089905;28;20046;-59
2021/09/15 06:01:27;;;;;;;;;;;;;;;;;;2087781;28;19921;-59
2021/09/15 06:02:28;;;;;;;;;;;;;;;;;;2089876;28;19927;-59
2021/09/15 06:03:29;;;;;;;;;;;;;;;;;;2089664;28;20354;-59
2021/09/15 06:04:29;;;;;;;;;;;;;;;;;;2088023;28;19990;-59
2021/09/15 06:05:30;;;;;;;;;;;;;;;;;;2089944;28;20419;-59
2021/09/15 06:06:31;;;;;;;;;;;;;;;;;;2089618;28;19921;-59
2021/09/15 06:07:35;;;;;;;;;;;;;;;;;;2086279;28;20374;-59
2021/09/15 06:08:36;;;;;;;;;;;;;;;;;;2089923;28;19925;-59
2021/09/15 06:09:37;;;;;;;;;;;;;;;;;;2089367;28;19921;-59
2021/09/15 06:10:38;;;;;;;;;;;;;;;;;;2088151;28;19921;-58
2021/09/15 06:11:38;;;;;;;;;;;;;;;;;;2089913;28;19937;-59
2021/09/15 06:12:39;;;;;;;;;;;;;;;;;;2089124;28;19927;-59
2021/09/15 06:13:40;;;;;;;;;;;;;;;;;;2085603;28;19987;-59
2021/09/15 06:14:41;;;;;;;;;;;;;;;;;;2081660;28;20031;-59
2021/09/15 06:15:42;;;;;;;;;;;;;;;;;;2083978;28;19921;-58
2021/09/15 06:16:43;;;;;;;;;;;;;;;;;;2084926;28;20418;-58
2021/09/15 06:17:43;;;;;;;;;;;;;;;;;;2081772;28;19925;-58
2021/09/15 06:18:45;;;;;;;;;;;;;;;;;;2084574;28;19929;-58
2021/09/15 06:19:46;;;;;;;;;;;;;;;;;;2084248;28;19967;-58
2021/09/15 06:20:46;;;;;;;;;;;;;;;;;;2081528;28;20019;-57
2021/09/15 06:21:47;;;;;;;;;;;;;;;;;;2085265;28;19921;-57
2021/09/15 06:22:48;;;;;;;;;;;;;;;;;;2083583;28;19921;-58
2021/09/15 06:23:51;;;;;;;;;;;;;;;;;;2081724;28;19975;-57
2021/09/15 06:24:54;;;;;;;;;;;;;;;;;;2086145;28;20396;-57
2021/09/15 06:25:55;;;;;;;;;;;;;;;;;;2082542;28;20023;-58
2021/09/15 06:26:55;;;;;;;;;;;;;;;;;;2089383;28;19928;-57
2021/09/15 06:27:56;;;;;;;;;;;;;;;;;;2087622;28;20259;-58
2021/09/15 06:28:57;;;;;;;;;;;;;;;;;;2089715;28;19943;-58
2021/09/15 06:29:58;;;;;;;;;;;;;;;;;;2089926;28;19921;-57
2021/09/15 06:30:59;;;;;;;;;;;;;;;;;;2087498;28;19921;-57
2021/09/15 06:32:00;;;;;;;;;;;;;;;;;;2089770;28;19924;-58
2021/09/15 06:33:00;;;;;;;;;;;;;;;;;;2089929;28;19920;-58
2021/09/15 06:34:01;;;;;;;;;;;;;;;;;;2087456;28;20306;-58
2021/09/15 06:35:04;;;;;;;;;;;;;;;;;;2089915;28;19925;-58
2021/09/15 06:36:05;;;;;;;;;;;;;;;;;;2089254;28;20007;-58
2021/09/15 06:37:06;;;;;;;;;;;;;;;;;;2087995;28;20255;-57
2021/09/15 06:38:07;;;;;;;;;;;;;;;;;;2089789;28;19921;-58
2021/09/15 06:39:07;;;;;;;;;;;;;;;;;;2089313;28;19947;-58
2021/09/15 06:40:08;;;;;;;;;;;;;;;;;;2087048;28;20302;-59
2021/09/15 06:41:09;;;;;;;;;;;;;;;;;;2089665;28;19931;-59
2021/09/15 06:42:11;;;;;;;;;;;;;;;;;;2089379;28;19921;-60
2021/09/15 06:43:12;;;;;;;;;;;;;;;;;;2085221;28;20027;-59
2021/09/15 06:44:13;;;;;;;;;;;;;;;;;;2081559;28;19921;-60
2021/09/15 06:45:14;;;;;;;;;;;;;;;;;;2082832;28;19921;-59
2021/09/15 06:46:14;;;;;;;;;;;;;;;;;;2087997;28;19920;-58
2021/09/15 06:47:15;;;;;;;;;;;;;;;;;;2089695;28;19971;-58
2021/09/15 06:48:17;;;;;;;;;;;;;;;;;;2088915;28;19921;-58
2021/09/15 06:49:18;;;;;;;;;;;;;;;;;;2088310;28;20011;-58
2021/09/15 06:50:19;;;;;;;;;;;;;;;;;;2089639;28;19920;-58
2021/09/15 06:51:20;;;;;;;;;;;;;;;;;;2083070;28;19944;-58
2021/09/15 06:52:20;;;;;;;;;;;;;;;;;;2084355;28;19971;-58
2021/09/15 06:53:21;;;;;;;;;;;;;;;;;;2081553;28;19921;-59
2021/09/15 06:54:22;;;;;;;;;;;;;;;;;;2084521;28;19931;-58
2021/09/15 06:55:23;;;;;;;;;;;;;;;;;;2083906;28;19978;-59
2021/09/15 06:56:24;;;;;;;;;;;;;;;;;;2081535;28;20015;-58
2021/09/15 06:57:25;;;;;;;;;;;;;;;;;;2083863;28;20373;-58
2021/09/15 06:58:26;;;;;;;;;;;;;;;;;;2089410;28;19924;-58
2021/09/15 06:59:27;;;;;;;;;;;;;;;;;;2089774;28;19921;-59
2021/09/15 07:00:28;;;;;;;;;;;;;;;;;;2088630;28;20366;-58
2021/09/15 07:01:28;;;;;;;;;;;;;;;;;;2082644;28;20396;-59
2021/09/15 07:02:29;;;;;;;;;;;;;;;;;;2081353;28;20438;-58